New Bavaria, OH

9:47 PM EDT on July 09, 2014 (GMT -0400)
Homer March Farms (KOHCONTI2) Elev 715 ft | 41.11 °N, 84.19 °W | Change Station

Current weather conditions updated 8 seconds ago

Clear
Clear
66.9 °F
Feels Like 66.9 °F
N
0.0
Wind Variable Wind from SW
Gusts 0.0 mph

Tomorrow is forecast to be Cooler than today.

Today
High -- | Low -- °F
--% Chance of Precip.
Yesterday
High -- | Low -- °F
Precip. -- in
6:12 AM 9:11 PM
Waxing Gibbous, 92% visible
Pressure 29.97 in
Visibility 10.0 miles
Clouds Clear
Dew Point 60 °F
Humidity 77%
Rainfall 0.00 in
Snow Depth Not available.
UV 0 out of 12
Pollen 3.30 out of 12
Air Quality Not available.
Flu Activity Sporadic
METAR KDFI 100053Z AUTO 33006KT 10SM CLR 22/13 A2998 RMK AO2 SLP148 T02170128

More Conditions Fewer Conditions

Pressure 29.97 in
Visibility 10.0 miles
Clouds Clear
Dew Point 60 °F
Humidity 77%
Rainfall 0.00 in
Snow Depth Not available.
UV 0 out of 12
Pollen 3.30 out of 12
Air Quality Not available.
Flu Activity Sporadic
METAR KDFI 100053Z AUTO 33006KT 10SM CLR 22/13 A2998 RMK AO2 SLP148 T02170128

More Conditions Fewer Conditions

10-Day Weather Forecast

Almanac

Astronomy

Jul. 09, 2014 Rise Set
Actual Time 6:12 AM EDT 9:11 PM EDT
Civil Twilight 5:39 AM EDT 9:44 PM EDT
Nautical Twilight 4:57 AM EDT 10:26 PM EDT
Astronomical Twilight 4:07 AM EDT 11:15 PM EDT
Moon 6:20 PM EDT (7/9) 3:30 AM EDT (7/9)
Length of Visible Light 16h 04m
Length of Day
14h 58m
Tomorrow will be 1m 7s shorter.
Waxing Gibbous, 92% of the Moon is Illuminated
Today
Waxing Gibbous
Jul 12
Full
Jul 18
Last Quarter
Jul 26
New
Aug 3
First Quarter

Today's Extremes

State Highs State Lows

Community

WunderPhotos

Upload Photos

1,732,023 photos uploaded!

Nearby

Snow Depth

Station Depth Elevation
No new snow has been reported.

Earthquake Activity

City Distance Mag. Time & Date
No recent earthquake activity has been reported nearby.
Minimum magnitude displayed is 2.5.

Coastal Water Temperatures

Place Temperature
No Stations Reporting

Nearby Weather Stations

Station Location Temp. Dew Point Humidity Wind Precip. Elev Updated Type
Homer March Farms, Continental, OH 66.9 °F 60 °F 77% SW  at  0.0 mph 0.00 in / hr 715 ft 9:47 PM EDT Rapid Fire
Dan Halter farm, Oakwood, OH 68.9 °F 60 °F 72% NW  at  0.0 mph 0.00 in / hr 702 ft 9:42 PM EDT Normal
KOHNAPOL2, Napoleon, OH 62.3 °F 57 °F 85% NNW  at  0.0 mph 0.00 in / hr 680 ft 9:47 PM EDT Rapid Fire
3 miles WNW of Melrose, Paulding County, OH 67.2 °F 59 °F 75% WNW  at  0.0 mph 0.00 in / hr 722 ft 9:47 PM EDT Rapid Fire
1 mile S. of Pettisville, Wauseon, OH 68.0 °F 57 °F 67% NW  at  0.0 mph 0.00 in / hr 746 ft 9:47 PM EDT Rapid Fire
APRSWXNET Wauseon OH , Pettisville, OH 69 °F 57 °F 66% NW  at  2 mph 0.00 in / hr 769 ft 9:15 PM EDT MADIS
Weston, Weston, OH 66.2 °F 58 °F 75% SW  at  0.0 mph 0.00 in / hr 682 ft 9:47 PM EDT Rapid Fire

Show More Stations Show Fewer Stations